Ontonagon, Michigan
Current Conditions -  °F | °C
As of 1:53 PM on Friday 28 Nov 2014 (Local Time) from KCMX Reporting Station
Overcast Overcast  
Wind Chill:   Ceiling: 9000
Heat Index: 13°   Visibility: 10mi
Dew Point:   Wind: 6mph
Humidity: 62%   Direction: 160°SSE
Pressure: 29.99"   Gusts: NA
Location:  46.87°N, 89.31°W
Report Text: KCMX 281853Z AUTO 16005KT 10SM OVC090 M11/M17 A2999 RMK AO2 SLP182 T11061167
Loading
Personal Weather Stations






























Interactive Weather Map New forecast layout! Learn more

10-Day Weather Forecast

Advertisements
Track Severe Weather on mobile